createdAt,value
2022-10-31T00:01:11.523Z,12.50
2022-10-31T00:03:38.228Z,12.40
2022-10-31T00:06:04.908Z,12.40
2022-10-31T00:08:31.588Z,12.40
2022-10-31T00:10:58.251Z,12.40
2022-10-31T00:13:24.907Z,12.40
2022-10-31T00:15:51.625Z,12.40
2022-10-31T00:18:18.345Z,12.40
2022-10-31T00:20:44.985Z,12.40
2022-10-31T00:23:12.270Z,12.30
2022-10-31T00:25:40.690Z,12.30
2022-10-31T00:28:09.993Z,12.30
2022-10-31T00:30:36.704Z,12.30
2022-10-31T00:33:06.103Z,12.30
2022-10-31T00:35:33.206Z,12.30
2022-10-31T00:37:59.964Z,12.40
2022-10-31T00:40:26.654Z,12.40
2022-10-31T00:42:53.370Z,12.40
2022-10-31T00:45:20.084Z,12.40
2022-10-31T00:47:46.742Z,12.40
2022-10-31T00:50:13.412Z,12.40
2022-10-31T00:52:40.058Z,12.50
2022-10-31T00:55:06.961Z,12.50
2022-10-31T00:57:33.624Z,12.50
2022-10-31T01:00:00.303Z,12.50
2022-10-31T01:02:27.056Z,12.50
2022-10-31T01:04:53.797Z,12.50
2022-10-31T01:07:20.513Z,12.50
2022-10-31T01:09:47.208Z,12.40
2022-10-31T01:12:13.915Z,12.40
2022-10-31T01:14:45.506Z,12.40
2022-10-31T01:17:13.741Z,12.40
2022-10-31T01:19:40.938Z,12.40
2022-10-31T01:22:07.666Z,12.40
2022-10-31T01:24:34.397Z,12.40
2022-10-31T01:27:01.042Z,12.40
2022-10-31T01:29:27.693Z,12.40
2022-10-31T01:31:54.340Z,12.40
2022-10-31T01:34:21.023Z,12.40
2022-10-31T01:36:51.975Z,12.40
2022-10-31T01:39:22.698Z,12.40
2022-10-31T01:41:52.496Z,12.40
2022-10-31T01:44:19.092Z,12.40
2022-10-31T01:47:08.140Z,12.40
2022-10-31T01:49:39.270Z,12.40
2022-10-31T01:52:24.601Z,12.40
2022-10-31T01:55:07.835Z,12.40
2022-10-31T01:57:38.838Z,12.30
2022-10-31T02:00:09.683Z,12.30
2022-10-31T02:02:36.950Z,12.20
2022-10-31T02:05:07.223Z,12.20
2022-10-31T02:07:54.162Z,12.10
2022-10-31T02:10:23.966Z,12.10
2022-10-31T02:12:56.176Z,12.10
2022-10-31T02:15:23.086Z,12.00
2022-10-31T02:17:49.957Z,12.10
2022-10-31T02:20:18.705Z,12.00
2022-10-31T02:23:19.995Z,12.00
2022-10-31T02:26:17.358Z,11.90
2022-10-31T02:29:02.058Z,11.90
2022-10-31T02:31:39.288Z,11.90
2022-10-31T02:34:38.472Z,11.90
2022-10-31T02:37:36.873Z,11.80
2022-10-31T02:40:22.790Z,11.80
2022-10-31T02:43:07.770Z,11.80
2022-10-31T02:45:44.929Z,11.80
2022-10-31T02:48:15.941Z,11.80
2022-10-31T02:50:48.709Z,11.90
2022-10-31T02:53:16.613Z,12.00
2022-10-31T02:55:47.918Z,12.10
2022-10-31T03:00:54.597Z,12.30
2022-10-31T03:03:41.740Z,12.40
2022-10-31T03:06:32.914Z,12.50
2022-10-31T03:09:17.153Z,12.60
2022-10-31T03:12:05.566Z,12.60
2022-10-31T03:15:05.149Z,12.70
2022-10-31T03:17:42.389Z,12.70
2022-10-31T03:20:11.374Z,12.70
2022-10-31T03:22:41.637Z,12.60
2022-10-31T03:25:09.659Z,12.50
2022-10-31T03:27:38.787Z,12.50
2022-10-31T03:30:08.647Z,12.50
2022-10-31T03:32:49.551Z,12.40
2022-10-31T03:35:20.617Z,12.50
2022-10-31T03:37:49.358Z,12.40
2022-10-31T03:40:17.369Z,12.40
2022-10-31T03:42:51.420Z,12.40
2022-10-31T03:45:43.082Z,12.40
2022-10-31T03:48:09.939Z,12.40
2022-10-31T03:51:05.958Z,12.30
2022-10-31T03:53:39.037Z,12.30
2022-10-31T03:56:12.258Z,12.30
2022-10-31T03:59:14.305Z,12.20
2022-10-31T04:01:45.775Z,12.20
2022-10-31T04:04:13.514Z,12.30
2022-10-31T04:06:43.059Z,12.30
2022-10-31T04:09:10.914Z,12.30
2022-10-31T04:11:41.698Z,12.30
2022-10-31T04:14:09.934Z,12.30
2022-10-31T04:16:36.744Z,12.20
2022-10-31T04:19:03.420Z,12.20
2022-10-31T04:21:30.943Z,12.20
2022-10-31T04:23:58.681Z,12.20
2022-10-31T04:26:25.352Z,12.20
2022-10-31T04:28:52.011Z,12.10
2022-10-31T04:31:18.733Z,12.10
2022-10-31T04:33:45.577Z,12.00
2022-10-31T04:36:12.423Z,11.90
2022-10-31T04:38:39.061Z,11.80
2022-10-31T04:41:05.955Z,11.80
2022-10-31T04:43:32.584Z,11.80
2022-10-31T04:45:59.211Z,11.90
2022-10-31T04:48:26.161Z,11.90
2022-10-31T04:50:52.819Z,11.80
2022-10-31T04:53:19.461Z,11.80
2022-10-31T04:55:46.106Z,11.80
2022-10-31T04:58:12.808Z,11.80
2022-10-31T05:00:39.497Z,11.70
2022-10-31T05:03:06.133Z,11.80
2022-10-31T05:05:33.121Z,11.70
2022-10-31T05:07:59.807Z,11.70
2022-10-31T05:10:29.314Z,11.70
2022-10-31T05:12:58.412Z,11.70
2022-10-31T05:15:27.382Z,11.70
2022-10-31T05:17:55.562Z,11.80
2022-10-31T05:20:24.894Z,11.80
2022-10-31T05:22:53.651Z,11.70
2022-10-31T05:25:22.322Z,11.70
2022-10-31T05:27:51.507Z,11.60
2022-10-31T05:30:23.890Z,11.60
2022-10-31T05:32:51.942Z,11.70
2022-10-31T05:35:21.289Z,11.60
2022-10-31T05:37:48.273Z,11.60
2022-10-31T05:40:17.361Z,11.50
2022-10-31T05:42:44.659Z,11.40
2022-10-31T05:45:14.117Z,11.50
2022-10-31T05:47:41.083Z,11.40
2022-10-31T05:50:09.403Z,11.40
2022-10-31T05:52:36.649Z,11.30
2022-10-31T05:55:03.816Z,11.30
2022-10-31T05:57:32.650Z,11.30
2022-10-31T05:59:59.289Z,11.30
2022-10-31T06:02:27.697Z,11.30
2022-10-31T06:04:57.605Z,11.20
2022-10-31T06:07:24.285Z,11.20
2022-10-31T06:09:50.944Z,11.30
2022-10-31T06:12:17.598Z,11.20
2022-10-31T06:14:44.223Z,11.30
2022-10-31T06:17:10.904Z,11.20
2022-10-31T06:19:37.610Z,11.20
2022-10-31T06:22:04.357Z,11.20
2022-10-31T06:24:30.979Z,11.20
2022-10-31T06:26:57.625Z,11.20
2022-10-31T06:29:24.267Z,11.20
2022-10-31T06:31:52.840Z,11.30
2022-10-31T06:34:19.523Z,11.20
2022-10-31T06:36:47.469Z,11.30
2022-10-31T06:39:14.829Z,11.30
2022-10-31T06:41:42.403Z,11.30
2022-10-31T06:44:09.156Z,11.40
2022-10-31T06:46:35.824Z,11.40
2022-10-31T06:49:02.500Z,11.40
2022-10-31T06:51:29.128Z,11.40
2022-10-31T06:53:55.755Z,11.40
2022-10-31T06:56:22.477Z,11.50
2022-10-31T06:58:49.124Z,11.60
2022-10-31T07:01:15.881Z,11.60
2022-10-31T07:03:42.711Z,11.60
2022-10-31T07:06:09.368Z,11.60
2022-10-31T07:08:36.237Z,11.70
2022-10-31T07:11:03.058Z,11.80
2022-10-31T07:13:29.712Z,11.80
2022-10-31T07:16:01.558Z,11.90
2022-10-31T07:18:29.037Z,12.10
2022-10-31T07:20:55.793Z,12.20
2022-10-31T07:23:23.128Z,12.20
2022-10-31T07:25:49.765Z,12.30
2022-10-31T07:28:16.407Z,12.40
2022-10-31T07:30:43.070Z,12.40
2022-10-31T07:33:09.898Z,12.40
2022-10-31T07:35:36.600Z,12.40
2022-10-31T07:38:12.646Z,12.50
2022-10-31T07:40:40.048Z,12.50
2022-10-31T07:43:10.213Z,12.40
2022-10-31T07:45:40.731Z,12.50
2022-10-31T07:48:07.685Z,12.50
2022-10-31T07:50:37.608Z,12.60
2022-10-31T07:53:10.165Z,12.60
2022-10-31T07:55:37.487Z,12.60
2022-10-31T07:58:12.724Z,12.70
2022-10-31T08:00:42.082Z,12.70
2022-10-31T08:03:14.222Z,12.70
2022-10-31T08:05:46.756Z,12.70
2022-10-31T08:08:14.347Z,12.70
2022-10-31T08:10:41.559Z,12.70
2022-10-31T08:13:13.305Z,12.80
2022-10-31T08:15:42.442Z,12.80
2022-10-31T08:18:15.814Z,12.80
2022-10-31T08:20:44.009Z,12.90
2022-10-31T08:23:11.963Z,12.90
2022-10-31T08:25:39.415Z,12.90
2022-10-31T08:28:07.644Z,12.90
2022-10-31T08:30:36.160Z,12.80
2022-10-31T08:33:13.240Z,12.80
2022-10-31T08:35:40.721Z,12.90
2022-10-31T08:38:08.963Z,12.90
2022-10-31T08:40:36.506Z,13.00
2022-10-31T08:43:14.624Z,13.00
2022-10-31T08:45:41.739Z,13.00
2022-10-31T08:48:12.090Z,13.10
2022-10-31T08:50:39.242Z,13.10
2022-10-31T08:53:11.576Z,13.20
2022-10-31T08:55:41.383Z,13.30
2022-10-31T08:58:12.711Z,13.40
2022-10-31T09:00:39.799Z,13.50
2022-10-31T09:03:27.504Z,13.60
2022-10-31T09:06:01.840Z,13.70
2022-10-31T09:08:31.232Z,13.80
2022-10-31T09:10:58.868Z,13.90
2022-10-31T09:13:28.143Z,14.00
2022-10-31T09:15:57.121Z,14.00
2022-10-31T09:18:24.468Z,14.10
2022-10-31T09:20:51.918Z,14.10
2022-10-31T09:23:20.671Z,14.10
2022-10-31T09:25:50.688Z,14.20
2022-10-31T09:28:20.213Z,14.30
2022-10-31T09:30:48.885Z,14.30
2022-10-31T09:33:15.644Z,14.20
2022-10-31T09:35:42.508Z,14.20
2022-10-31T09:38:17.489Z,14.30
2022-10-31T09:40:53.937Z,14.30
2022-10-31T09:43:34.521Z,14.30
2022-10-31T09:46:36.880Z,14.40
2022-10-31T09:49:17.653Z,14.40
2022-10-31T09:51:53.228Z,14.50
2022-10-31T09:54:42.306Z,14.70
2022-10-31T09:57:15.939Z,14.90
2022-10-31T09:59:45.307Z,15.00
2022-10-31T10:02:17.735Z,15.20
2022-10-31T10:05:00.762Z,15.40
2022-10-31T10:07:33.407Z,15.60
2022-10-31T10:10:14.633Z,15.70
2022-10-31T10:12:47.881Z,15.80
2022-10-31T10:15:33.537Z,15.80
2022-10-31T10:18:18.952Z,15.80
2022-10-31T10:20:59.102Z,15.80
2022-10-31T10:23:51.914Z,15.90
2022-10-31T10:26:21.109Z,16.10
2022-10-31T10:28:53.053Z,16.30
2022-10-31T10:31:31.393Z,16.40
2022-10-31T10:34:18.101Z,16.60
2022-10-31T10:37:02.992Z,16.80
2022-10-31T10:40:07.874Z,16.90
2022-10-31T10:42:53.689Z,17.00
2022-10-31T10:45:39.761Z,17.10
2022-10-31T10:48:34.066Z,17.20
2022-10-31T10:51:02.422Z,17.50
2022-10-31T10:54:04.103Z,17.50
2022-10-31T10:56:57.085Z,17.60
2022-10-31T10:59:23.972Z,17.70
2022-10-31T11:01:52.425Z,17.70
2022-10-31T11:04:32.674Z,17.70
2022-10-31T11:07:01.044Z,17.60
2022-10-31T11:09:27.767Z,17.60
2022-10-31T11:11:56.877Z,17.60
2022-10-31T11:14:24.698Z,17.60
2022-10-31T11:17:20.984Z,17.60
2022-10-31T11:19:47.631Z,17.60
2022-10-31T11:22:18.734Z,17.70
2022-10-31T11:24:45.438Z,17.80
2022-10-31T11:27:22.947Z,17.90
2022-10-31T11:29:50.437Z,17.90
2022-10-31T11:32:23.423Z,17.90
2022-10-31T11:34:54.260Z,17.80
2022-10-31T11:37:26.945Z,17.70
2022-10-31T11:39:56.321Z,17.70
2022-10-31T11:42:26.216Z,17.60
2022-10-31T11:44:54.774Z,17.60
2022-10-31T11:47:29.892Z,17.50
2022-10-31T11:49:58.545Z,17.60
2022-10-31T11:52:31.704Z,17.70
2022-10-31T11:55:00.691Z,17.70
2022-10-31T11:57:43.048Z,17.80
2022-10-31T12:00:33.751Z,17.90
2022-10-31T12:03:28.641Z,17.90
2022-10-31T12:06:20.343Z,18.00
2022-10-31T12:08:47.624Z,18.00
2022-10-31T12:11:43.883Z,18.00
2022-10-31T12:14:28.791Z,17.90
2022-10-31T12:17:27.028Z,17.90
2022-10-31T12:20:27.068Z,17.90
2022-10-31T12:23:04.432Z,17.90
2022-10-31T12:25:59.027Z,17.90
2022-10-31T12:28:52.467Z,17.90
2022-10-31T12:31:24.730Z,17.90
2022-10-31T12:34:09.863Z,17.90
2022-10-31T12:37:07.024Z,17.90
2022-10-31T12:40:11.302Z,17.90
2022-10-31T12:42:47.058Z,17.90
2022-10-31T12:45:42.558Z,18.00
2022-10-31T12:48:28.108Z,18.10
2022-10-31T12:51:13.325Z,18.20
2022-10-31T12:53:52.026Z,18.30
2022-10-31T12:56:53.882Z,18.30
2022-10-31T12:59:51.831Z,18.40
2022-10-31T13:02:30.744Z,18.40
2022-10-31T13:05:22.569Z,18.40
2022-10-31T13:07:59.906Z,18.40
2022-10-31T13:10:32.817Z,18.40
2022-10-31T13:13:08.331Z,18.40
2022-10-31T13:15:47.901Z,18.40
2022-10-31T13:18:34.708Z,18.50
2022-10-31T13:21:06.452Z,18.50
2022-10-31T13:23:51.756Z,18.60
2022-10-31T13:26:37.824Z,18.70
2022-10-31T13:29:24.770Z,18.80
2022-10-31T13:31:53.755Z,18.90
2022-10-31T13:34:29.942Z,18.90
2022-10-31T13:37:04.264Z,18.80
2022-10-31T13:39:47.629Z,18.80
2022-10-31T13:42:21.745Z,18.80
2022-10-31T13:44:48.399Z,18.80
2022-10-31T13:47:29.392Z,18.70
2022-10-31T13:50:20.291Z,18.70
2022-10-31T13:52:47.387Z,18.60
2022-10-31T13:55:44.213Z,18.50
2022-10-31T13:58:32.538Z,18.50
2022-10-31T14:01:13.854Z,18.50
2022-10-31T14:04:06.136Z,18.50
2022-10-31T14:06:39.359Z,18.50
2022-10-31T14:09:06.614Z,18.50
2022-10-31T14:11:36.277Z,18.40
2022-10-31T14:14:04.040Z,18.50
2022-10-31T14:16:32.522Z,18.40
2022-10-31T14:19:03.246Z,18.40
2022-10-31T14:21:32.670Z,18.40
2022-10-31T14:23:59.407Z,18.40
2022-10-31T14:26:27.155Z,18.40
2022-10-31T14:28:56.639Z,18.40
2022-10-31T14:31:37.490Z,18.40
2022-10-31T14:34:38.363Z,18.40
2022-10-31T14:37:40.656Z,18.40
2022-10-31T14:40:32.758Z,18.40
2022-10-31T14:43:18.082Z,18.40
2022-10-31T14:45:44.752Z,18.40
2022-10-31T14:48:32.661Z,18.40
2022-10-31T14:51:09.687Z,18.50
2022-10-31T14:53:50.969Z,18.40
2022-10-31T14:56:25.874Z,18.40
2022-10-31T14:58:55.208Z,18.50
2022-10-31T15:01:37.778Z,18.50
2022-10-31T15:04:24.730Z,18.50
2022-10-31T15:07:18.150Z,18.40
2022-10-31T15:09:58.476Z,18.30
2022-10-31T15:12:31.149Z,18.30
2022-10-31T15:14:59.321Z,18.20
2022-10-31T15:17:27.638Z,18.20
2022-10-31T15:19:54.944Z,18.10
2022-10-31T15:22:24.847Z,18.10
2022-10-31T15:24:57.185Z,18.10
2022-10-31T15:27:25.643Z,18.10
2022-10-31T15:29:55.284Z,18.00
2022-10-31T15:32:24.604Z,17.90
2022-10-31T15:34:52.911Z,17.90
2022-10-31T15:37:22.048Z,17.80
2022-10-31T15:39:50.197Z,17.70
2022-10-31T15:42:29.305Z,17.70
2022-10-31T15:45:03.702Z,17.60
2022-10-31T15:47:32.873Z,17.50
2022-10-31T15:50:01.465Z,17.40
2022-10-31T15:52:45.297Z,17.30
2022-10-31T15:55:24.829Z,17.10
2022-10-31T15:57:54.882Z,17.00
2022-10-31T16:00:29.679Z,17.00
2022-10-31T16:03:27.228Z,16.90
2022-10-31T16:05:56.421Z,16.90
2022-10-31T16:08:30.424Z,16.80
2022-10-31T16:11:37.336Z,16.70
2022-10-31T16:14:08.724Z,16.70
2022-10-31T16:16:43.095Z,16.60
2022-10-31T16:19:19.241Z,16.60
2022-10-31T16:21:47.077Z,16.50
2022-10-31T16:24:35.465Z,16.40
2022-10-31T16:27:06.704Z,16.30
2022-10-31T16:29:44.557Z,16.20
2022-10-31T16:32:34.592Z,16.30
2022-10-31T16:35:02.321Z,16.30
2022-10-31T16:37:29.080Z,16.30
2022-10-31T16:39:55.785Z,16.30
2022-10-31T16:42:22.546Z,16.40
2022-10-31T16:44:49.989Z,16.30
2022-10-31T16:47:18.474Z,16.20
2022-10-31T16:49:49.116Z,16.10
2022-10-31T16:52:17.115Z,16.10
2022-10-31T16:54:43.976Z,16.10
2022-10-31T16:57:17.030Z,16.00
2022-10-31T16:59:43.990Z,16.00
2022-10-31T17:02:15.605Z,16.00
2022-10-31T17:04:42.634Z,16.00
2022-10-31T17:07:09.385Z,16.10
2022-10-31T17:09:36.052Z,16.20
2022-10-31T17:12:03.099Z,16.30
2022-10-31T17:14:29.884Z,16.30
2022-10-31T17:16:59.546Z,16.20
2022-10-31T17:19:26.236Z,16.20
2022-10-31T17:21:52.907Z,16.10
2022-10-31T17:24:19.584Z,16.00
2022-10-31T17:26:47.144Z,15.90
2022-10-31T17:29:14.213Z,15.90
2022-10-31T17:31:42.195Z,15.80
2022-10-31T17:34:09.374Z,15.80
2022-10-31T17:36:36.629Z,15.80
2022-10-31T17:39:07.342Z,15.80
2022-10-31T17:41:34.117Z,15.80
2022-10-31T17:44:00.812Z,15.80
2022-10-31T17:46:28.532Z,15.80
2022-10-31T17:48:55.193Z,15.80
2022-10-31T17:51:21.922Z,15.80
2022-10-31T17:53:48.694Z,15.80
2022-10-31T17:56:15.474Z,15.70
2022-10-31T17:58:42.252Z,15.70
2022-10-31T18:01:11.310Z,15.60
2022-10-31T18:03:38.778Z,15.60
2022-10-31T18:06:06.064Z,15.60
2022-10-31T18:08:35.299Z,15.50
2022-10-31T18:11:09.075Z,15.50
2022-10-31T18:13:36.340Z,15.40
2022-10-31T18:16:06.599Z,15.40
2022-10-31T18:18:33.246Z,15.50
2022-10-31T18:20:59.901Z,15.50
2022-10-31T18:23:26.544Z,15.50
2022-10-31T18:25:54.792Z,15.50
2022-10-31T18:28:21.540Z,15.50
2022-10-31T18:30:48.450Z,15.50
2022-10-31T18:33:15.177Z,15.60
2022-10-31T18:35:41.830Z,15.70
2022-10-31T18:38:08.994Z,15.70
2022-10-31T18:40:36.513Z,15.70
2022-10-31T18:43:04.017Z,15.80
2022-10-31T18:45:41.600Z,15.80
2022-10-31T18:48:14.901Z,15.90
2022-10-31T18:50:41.895Z,15.80
2022-10-31T18:53:08.941Z,15.70
2022-10-31T18:55:43.903Z,15.60
2022-10-31T18:58:14.341Z,15.60
2022-10-31T19:00:41.052Z,15.60
2022-10-31T19:03:07.707Z,15.60
2022-10-31T19:05:34.582Z,15.50
2022-10-31T19:08:01.232Z,15.60
2022-10-31T19:10:28.113Z,15.50
2022-10-31T19:12:54.798Z,15.50
2022-10-31T19:15:21.820Z,15.50
2022-10-31T19:17:49.235Z,15.50
2022-10-31T19:20:16.205Z,15.40
2022-10-31T19:22:42.918Z,15.40
2022-10-31T19:25:11.040Z,15.30
2022-10-31T19:27:38.606Z,15.30
2022-10-31T19:30:06.764Z,15.30
2022-10-31T19:32:33.525Z,15.20
2022-10-31T19:35:00.404Z,16.50
2022-10-31T19:37:27.106Z,15.20
2022-10-31T19:39:53.808Z,15.20
2022-10-31T19:42:20.692Z,15.20
2022-10-31T19:44:47.373Z,15.10
2022-10-31T19:47:14.035Z,15.10
2022-10-31T19:49:40.691Z,15.10
2022-10-31T19:52:07.484Z,15.10
2022-10-31T19:54:34.265Z,15.00
2022-10-31T19:57:01.107Z,15.00
2022-10-31T19:59:27.883Z,15.00
2022-10-31T20:01:54.612Z,15.00
2022-10-31T20:04:21.338Z,15.00
2022-10-31T20:06:48.038Z,15.00
2022-10-31T20:09:15.228Z,15.10
2022-10-31T20:11:43.810Z,15.10
2022-10-31T20:14:14.885Z,15.00
2022-10-31T20:16:42.490Z,15.00
2022-10-31T20:19:09.476Z,14.90
2022-10-31T20:21:38.390Z,14.90
2022-10-31T20:24:07.502Z,14.90
2022-10-31T20:26:35.062Z,14.90
2022-10-31T20:29:02.259Z,14.90
2022-10-31T20:31:32.055Z,14.80
2022-10-31T20:33:58.945Z,14.80
2022-10-31T20:36:28.609Z,14.80
2022-10-31T20:38:55.506Z,14.70
2022-10-31T20:41:22.226Z,14.70
2022-10-31T20:43:49.040Z,14.80
2022-10-31T20:46:24.231Z,14.70
2022-10-31T20:48:51.608Z,14.80
2022-10-31T20:51:25.213Z,14.80
2022-10-31T20:53:53.748Z,14.80
2022-10-31T20:56:22.249Z,14.80
2022-10-31T20:58:49.830Z,14.80
2022-10-31T21:01:22.427Z,14.80
2022-10-31T21:03:49.748Z,14.70
2022-10-31T21:06:17.674Z,14.60
2022-10-31T21:08:44.673Z,14.70
2022-10-31T21:11:15.888Z,15.90
2022-10-31T21:13:44.538Z,14.60
2022-10-31T21:16:16.907Z,14.60
2022-10-31T21:18:44.808Z,14.50
2022-10-31T21:21:20.389Z,14.50
2022-10-31T21:23:47.489Z,14.50
2022-10-31T21:26:17.446Z,14.50
2022-10-31T21:28:44.750Z,14.50
2022-10-31T21:31:14.634Z,14.40
2022-10-31T21:33:42.572Z,14.40
2022-10-31T21:36:09.995Z,14.40
2022-10-31T21:38:36.912Z,14.40
2022-10-31T21:41:07.134Z,14.40
2022-10-31T21:43:38.605Z,14.40
2022-10-31T21:46:13.883Z,14.40
2022-10-31T21:48:42.877Z,14.40
2022-10-31T21:51:11.974Z,14.40
2022-10-31T21:53:57.680Z,14.50
2022-10-31T21:56:25.152Z,14.50
2022-10-31T21:58:52.909Z,14.50
2022-10-31T22:01:20.218Z,14.50
2022-10-31T22:03:47.024Z,14.50
2022-10-31T22:06:15.281Z,14.50
2022-10-31T22:08:42.571Z,14.50
2022-10-31T22:11:13.466Z,14.50
2022-10-31T22:13:41.038Z,14.50
2022-10-31T22:16:10.292Z,14.50
2022-10-31T22:18:37.548Z,14.60
2022-10-31T22:21:10.100Z,14.60
2022-10-31T22:23:37.265Z,14.60
2022-10-31T22:26:09.881Z,14.60
2022-10-31T22:28:36.612Z,14.60
2022-10-31T22:31:05.407Z,14.60
2022-10-31T22:33:32.881Z,14.60
2022-10-31T22:36:11.425Z,14.60
2022-10-31T22:38:40.296Z,14.60
2022-10-31T22:41:12.967Z,14.60
2022-10-31T22:43:40.186Z,14.70
2022-10-31T22:46:08.611Z,14.70
2022-10-31T22:48:37.743Z,14.80
2022-10-31T22:51:13.419Z,14.80
2022-10-31T22:53:40.869Z,14.90
2022-10-31T22:56:10.029Z,14.90
2022-10-31T22:58:36.941Z,14.90
2022-10-31T23:01:15.165Z,14.90
2022-10-31T23:03:42.740Z,15.00
2022-10-31T23:06:12.322Z,15.00
2022-10-31T23:08:39.993Z,14.90
2022-10-31T23:11:28.560Z,14.90
2022-10-31T23:14:08.970Z,14.90
2022-10-31T23:16:37.179Z,14.90
2022-10-31T23:19:18.066Z,14.90
2022-10-31T23:21:57.410Z,14.90
2022-10-31T23:24:26.999Z,14.90
2022-10-31T23:27:07.794Z,15.00
2022-10-31T23:29:37.142Z,15.10
2022-10-31T23:32:05.265Z,15.10
2022-10-31T23:34:32.008Z,15.20
2022-10-31T23:36:58.744Z,15.10
2022-10-31T23:39:25.600Z,15.10
2022-10-31T23:41:52.615Z,15.20
2022-10-31T23:44:19.254Z,15.20
2022-10-31T23:46:46.095Z,15.20
2022-10-31T23:49:12.841Z,15.20
2022-10-31T23:51:39.937Z,15.10
2022-10-31T23:54:07.122Z,15.00
2022-10-31T23:56:34.283Z,15.00
2022-10-31T23:59:01.534Z,15.00
